Cadott, WI (54727)

3:12 PM CST on February 14, 2016 (GMT -0600)
Clear Creek Estates/Sigel Township/Cadott, WI | | Change Station
CLOSE
Current Station
Personal Weather Station
Location: Cadott, WI
Elevation: 1007 ft
Nearby Weather Stations

Elev 1007 ft 44.91 °N, 91.14 °W | Updated 1 minute ago

Snow
Snow
18.5 °F
Feels Like 12 °F
N
4.2
Wind Variable Wind from ESE

Today
High -- | Low -- °F
--% Chance of Precip.
Yesterday
High -- | Low -- °F
Precip. -- in
Pressure 30.05 in
Visibility 10.0 miles
Clouds Overcast 2500 ft
Windchill 12 °F
Dew Point 11 °F
Humidity 72%
Rainfall 0.00 in
Snow Depth Not available.
7:07 AM 5:30 PM
Waxing Crescent, 45% visible
METAR KEAU 142056Z 13012G20KT 10SM OVC025 M08/M13 A2998 RMK AO2 SNE37 SLP175 P0000 60000 T10831133 56027
Pressure 30.05 in
Visibility 10.0 miles
Clouds Overcast 2500 ft
Windchill 12 °F
Dew Point 11 °F
Humidity 72%
Rainfall 0.00 in
Snow Depth Not available.
7:07 AM 5:30 PM
Waxing Crescent, 45% visible
METAR KEAU 142056Z 13012G20KT 10SM OVC025 M08/M13 A2998 RMK AO2 SNE37 SLP175 P0000 60000 T10831133 56027

10-Day Weather Forecast

Almanac

Astronomy

Feb. 14, 2016 Rise Set
Actual Time
Civil Twilight
Nautical Twilight
Astronomical Twilight
Moon
Length of Visible Light
Length of Day
Tomorrow will be .
, % of the Moon is Illuminated

Today's Extremes

State Highs State Lows

Community

WunderPhotos

Upload Photos

1,892,886 photos uploaded!

WunderBlog® & News

Nearby

Air Quality

  Air Quality AQ Index Pollutant
Not available.

Snow Depth

Station Depth Elevation

Earthquake Activity

City Distance Mag. Time & Date
Minimum magnitude displayed is 2.5.

Coastal Water Temperatures

Place Temperature

Stations

Nearby Weather Stations

Station Location Temp. Windchill Dew Point Humidity Wind Precip. Elev Updated Type
                   

Watches & Warnings

There are currently no watches in effect.